East McKeesport, Pennsylvania
Current Conditions -  °F | °C
As of 2:53 AM on Thursday 29 Jan 2015 (Local Time) from KAGC Reporting Station
Overcast Overcast  
Wind Chill:   Ceiling: 11000
Heat Index: 17°   Visibility: 10mi
Dew Point:   Wind: 8mph
Humidity: 68%   Direction: 130°SE
Pressure: 30.18"   Gusts: NA
Location:  40.38°N, 79.81°W
Report Text: KAGC 290753Z 13007KT 10SM OVC110 M08/M13 A3018 RMK AO2 SLP246 T10831133 $
Loading
Personal Weather Stations






























Interactive Weather Map New forecast layout! Learn more

10-Day Weather Forecast

Advertisements
Track Severe Weather on mobile